Time;durP1;ratioP1;P1;durP2;ratioP2;P2;SDS_P1;SDS_P2;PMS_P1;PMS_P2;Temp;Humidity;BMP_temperature;BMP_pressure;BME280_temperature;BME280_humidity;BME280_pressure;Samples;Min_cycle;Max_cycle;Signal;HPM_P1;HPM_P2
2021/12/18 00:01:17;;;;;;;15.67;7.43;;;;;;;;;;5032778;28;20071;-74
2021/12/18 00:03:43;;;;;;;20.85;8.68;;;;;;;;;;5030497;28;20056;-75
2021/12/18 00:06:09;;;;;;;15.85;9.02;;;;;;;;;;5031659;28;20029;-75
2021/12/18 00:08:34;;;;;;;12.77;7.50;;;;;;;;;;5032645;28;20041;-74
2021/12/18 00:11:00;;;;;;;17.90;8.73;;;;;;;;;;5032644;28;20030;-74
2021/12/18 00:13:26;;;;;;;15.57;8.63;;;;;;;;;;5032594;28;20109;-72
2021/12/18 00:15:51;;;;;;;15.07;7.53;;;;;;;;;;5034491;28;20098;-71
2021/12/18 00:18:17;;;;;;;15.43;8.73;;;;;;;;;;5035178;28;20063;-74
2021/12/18 00:20:43;;;;;;;15.37;8.87;;;;;;;;;;5036159;28;20041;-74
2021/12/18 00:23:08;;;;;;;16.07;8.70;;;;;;;;;;5036490;28;20051;-74
2021/12/18 00:25:34;;;;;;;16.03;8.97;;;;;;;;;;5036003;28;20587;-73
2021/12/18 00:27:59;;;;;;;18.17;8.67;;;;;;;;;;5033639;28;21126;-73
2021/12/18 00:30:26;;;;;;;17.13;9.20;;;;;;;;;;5041834;28;20408;-74
2021/12/18 00:32:51;;;;;;;16.50;9.50;;;;;;;;;;5036194;28;20048;-73
2021/12/18 00:35:17;;;;;;;18.60;9.37;;;;;;;;;;5033642;28;20508;-74
2021/12/18 00:37:43;;;;;;;17.33;9.18;;;;;;;;;;5035748;28;20038;-73
2021/12/18 00:40:16;;;;;;;19.52;9.45;;;;;;;;;;5050777;28;20048;-74
2021/12/18 00:42:48;;;;;;;18.77;10.00;;;;;;;;;;5034843;28;20041;-74
2021/12/18 00:45:15;;;;;;;21.52;10.43;;;;;;;;;;5035169;28;20446;-73
2021/12/18 00:47:42;;;;;;;19.67;9.23;;;;;;;;;;5034743;28;20086;-71
2021/12/18 00:50:20;;;;;;;19.38;10.55;;;;;;;;;;5034648;28;20045;-71
2021/12/18 00:52:47;;;;;;;19.58;8.80;;;;;;;;;;5035105;28;20087;-71
2021/12/18 00:55:13;;;;;;;17.95;10.00;;;;;;;;;;5035787;28;20124;-71
2021/12/18 00:57:39;;;;;;;18.33;9.80;;;;;;;;;;5035283;28;20511;-71
2021/12/18 01:00:07;;;;;;;15.97;8.77;;;;;;;;;;5035546;28;20124;-72
2021/12/18 01:02:33;;;;;;;19.17;9.57;;;;;;;;;;5034350;28;20044;-74
2021/12/18 01:04:58;;;;;;;16.97;9.13;;;;;;;;;;5035459;28;20029;-73
2021/12/18 01:07:24;;;;;;;19.00;10.67;;;;;;;;;;5034295;28;20037;-74
2021/12/18 01:12:15;;;;;;;23.43;9.73;;;;;;;;;;5035466;28;20042;-74
2021/12/18 01:25:07;;;;;;;19.83;9.25;;;;;;;;;;5033981;28;20056;-72
2021/12/18 01:27:32;;;;;;;16.95;9.55;;;;;;;;;;5033570;28;20029;-72
2021/12/18 01:29:58;;;;;;;16.87;8.80;;;;;;;;;;5035085;28;20139;-72
2021/12/18 01:32:24;;;;;;;20.33;9.23;;;;;;;;;;5050387;28;20029;-73
2021/12/18 01:34:50;;;;;;;;;;;;;;;;;;5035456;28;20036;-71
2021/12/18 01:37:16;;;;;;;19.58;9.10;;;;;;;;;;5050160;28;19917;-71
2021/12/18 01:39:42;;;;;;;19.03;10.03;;;;;;;;;;5033722;28;20502;-71
2021/12/18 01:45:36;;;;;;;20.25;9.85;;;;;;;;;;5028817;28;20064;-71
2021/12/18 01:52:54;;;;;;;18.45;9.73;;;;;;;;;;5031649;28;20430;-71
2021/12/18 01:55:21;;;;;;;18.25;9.60;;;;;;;;;;5033225;28;20596;-71
2021/12/18 01:57:46;;;;;;;20.60;10.32;;;;;;;;;;5033169;28;20136;-72
2021/12/18 02:00:17;;;;;;;23.50;11.30;;;;;;;;;;5032365;28;20108;-71
2021/12/18 02:02:42;;;;;;;24.10;10.88;;;;;;;;;;5033071;28;20037;-72
2021/12/18 02:05:08;;;;;;;21.33;10.70;;;;;;;;;;5034391;28;20029;-72
2021/12/18 02:07:33;;;;;;;19.00;9.50;;;;;;;;;;5034326;28;20029;-71
2021/12/18 02:10:06;;;;;;;21.60;10.60;;;;;;;;;;5034300;28;20033;-71
2021/12/18 02:12:46;;;;;;;23.45;10.73;;;;;;;;;;5048565;28;20420;-71
2021/12/18 02:20:48;;;;;;;20.45;9.98;;;;;;;;;;5046750;28;20076;-71
2021/12/18 02:23:14;;;;;;;19.23;10.75;;;;;;;;;;5049565;28;20056;-72
2021/12/18 02:25:40;;;;;;;22.73;11.30;;;;;;;;;;5032190;28;20033;-71
2021/12/18 02:28:11;;;;;;;19.73;10.50;;;;;;;;;;5033256;28;20375;-71
2021/12/18 02:30:37;;;;;;;19.90;10.70;;;;;;;;;;5018737;28;20405;-71
2021/12/18 02:33:02;;;;;;;26.50;11.70;;;;;;;;;;5032607;28;20038;-71
2021/12/18 02:35:36;;;;;;;23.03;11.03;;;;;;;;;;5033884;28;20037;-72
2021/12/18 02:38:21;;;;;;;23.23;10.43;;;;;;;;;;5031788;28;20040;-71
2021/12/18 02:43:31;;;;;;;22.13;10.30;;;;;;;;;;5033584;28;20045;-71
2021/12/18 02:46:00;;;;;;;16.92;9.15;;;;;;;;;;5030782;28;20045;-72
2021/12/18 02:48:29;;;;;;;21.00;9.27;;;;;;;;;;5033537;28;20049;-71
2021/12/18 02:50:56;;;;;;;24.65;9.75;;;;;;;;;;5048533;28;20501;-71
2021/12/18 02:53:21;;;;;;;22.40;9.32;;;;;;;;;;5033335;28;20033;-71
2021/12/18 02:55:53;;;;;;;25.73;11.13;;;;;;;;;;5033424;28;20117;-71
2021/12/18 02:58:19;;;;;;;24.33;11.32;;;;;;;;;;5031993;28;20458;-71
2021/12/18 03:00:44;;;;;;;23.93;9.53;;;;;;;;;;5033013;28;20099;-72
2021/12/18 03:03:10;;;;;;;21.43;9.97;;;;;;;;;;5032112;28;20089;-71
2021/12/18 03:05:44;;;;;;;24.42;9.95;;;;;;;;;;5031157;28;20497;-72
2021/12/18 03:08:17;;;;;;;19.70;10.00;;;;;;;;;;5022639;28;20060;-71
2021/12/18 03:26:44;;;;;;;23.58;10.52;;;;;;;;;;5031581;28;20095;-72
2021/12/18 03:29:09;;;;;;;19.83;10.00;;;;;;;;;;5032822;28;20033;-72
2021/12/18 03:31:35;;;;;;;21.90;9.07;;;;;;;;;;5033391;28;20470;-71
2021/12/18 03:34:01;;;;;;;22.40;11.05;;;;;;;;;;5033121;28;20033;-71
2021/12/18 03:36:26;;;;;;;21.77;10.50;;;;;;;;;;5033013;28;20041;-71
2021/12/18 03:38:52;;;;;;;23.47;11.37;;;;;;;;;;5032804;28;20087;-71
2021/12/18 03:41:17;;;;;;;23.30;11.10;;;;;;;;;;5032946;28;20501;-72
2021/12/18 03:43:42;;;;;;;21.60;9.80;;;;;;;;;;5032847;28;20033;-71
2021/12/18 03:46:08;;;;;;;25.33;11.07;;;;;;;;;;5032966;28;20370;-71
2021/12/18 03:48:33;;;;;;;31.27;13.57;;;;;;;;;;5032844;28;20474;-71
2021/12/18 03:50:59;;;;;;;23.10;11.17;;;;;;;;;;5036917;28;20473;-71
2021/12/18 03:53:24;;;;;;;24.00;10.97;;;;;;;;;;5036862;28;20033;-73
2021/12/18 03:55:49;;;;;;;23.37;10.93;;;;;;;;;;5036587;28;20701;-75
2021/12/18 03:58:15;;;;;;;22.10;10.30;;;;;;;;;;5036703;28;20053;-74
2021/12/18 04:00:41;;;;;;;23.77;11.43;;;;;;;;;;5036414;28;20465;-74
2021/12/18 04:03:06;;;;;;;29.70;11.97;;;;;;;;;;5036570;28;20032;-74
2021/12/18 04:05:32;;;;;;;25.47;11.03;;;;;;;;;;5036549;28;20087;-71
2021/12/18 04:08:08;;;;;;;23.40;11.63;;;;;;;;;;5036605;28;20041;-71
2021/12/18 04:10:36;;;;;;;26.00;12.03;;;;;;;;;;5033361;28;20113;-71
2021/12/18 04:13:02;;;;;;;22.05;9.70;;;;;;;;;;5035240;28;20285;-71
2021/12/18 04:15:27;;;;;;;26.52;11.55;;;;;;;;;;5036074;28;20478;-71
2021/12/18 04:17:53;;;;;;;26.67;11.20;;;;;;;;;;5036216;28;20076;-71
2021/12/18 04:20:18;;;;;;;25.43;12.03;;;;;;;;;;5036448;28;20041;-71
2021/12/18 04:22:44;;;;;;;31.20;13.13;;;;;;;;;;5036356;28;20470;-71
2021/12/18 04:25:09;;;;;;;31.60;13.60;;;;;;;;;;5051750;28;20091;-72
2021/12/18 04:27:34;;;;;;;28.43;11.43;;;;;;;;;;5032668;28;20041;-71
2021/12/18 04:30:00;;;;;;;28.00;11.83;;;;;;;;;;5039925;28;20526;-71
2021/12/18 04:32:25;;;;;;;21.83;10.13;;;;;;;;;;5034884;28;20498;-74
2021/12/18 04:34:51;;;;;;;24.23;11.00;;;;;;;;;;5036192;28;20033;-76
2021/12/18 04:37:16;;;;;;;19.83;10.77;;;;;;;;;;5036097;28;20355;-73
2021/12/18 04:39:41;;;;;;;20.63;9.77;;;;;;;;;;5035573;28;20519;-74
2021/12/18 04:42:07;;;;;;;17.00;9.20;;;;;;;;;;5036036;28;20044;-74
2021/12/18 04:44:32;;;;;;;18.30;9.03;;;;;;;;;;5035855;28;20068;-72
2021/12/18 04:46:58;;;;;;;20.90;10.50;;;;;;;;;;5035825;28;20469;-71
2021/12/18 04:49:23;;;;;;;19.87;10.60;;;;;;;;;;5035225;28;20041;-71
2021/12/18 04:51:49;;;;;;;16.50;9.63;;;;;;;;;;5033069;28;20029;-73
2021/12/18 04:54:14;;;;;;;18.83;9.80;;;;;;;;;;5034536;28;20610;-74
2021/12/18 04:56:40;;;;;;;18.23;9.30;;;;;;;;;;5050791;28;20060;-73
2021/12/18 04:59:06;;;;;;;15.53;8.57;;;;;;;;;;5050790;28;20028;-73
2021/12/18 05:01:36;;;;;;;16.13;9.37;;;;;;;;;;5034931;28;20037;-73
2021/12/18 05:04:04;;;;;;;17.10;8.82;;;;;;;;;;5032670;28;20190;-73
2021/12/18 05:06:31;;;;;;;16.45;9.82;;;;;;;;;;5050689;28;20026;-73
2021/12/18 05:08:56;;;;;;;13.10;8.30;;;;;;;;;;5035335;28;20025;-73
2021/12/18 05:11:22;;;;;;;17.73;8.77;;;;;;;;;;5035445;28;20504;-73
2021/12/18 05:13:47;;;;;;;15.87;8.10;;;;;;;;;;5035406;28;20138;-71
2021/12/18 05:16:12;;;;;;;15.30;8.43;;;;;;;;;;5035210;28;20107;-71
2021/12/18 05:18:38;;;;;;;15.80;8.60;;;;;;;;;;5035316;28;20539;-73
2021/12/18 05:21:03;;;;;;;15.33;7.73;;;;;;;;;;5035045;28;20045;-72
2021/12/18 05:23:29;;;;;;;15.33;8.30;;;;;;;;;;5030749;28;20431;-71
2021/12/18 05:25:54;;;;;;;15.33;8.77;;;;;;;;;;5050314;28;20052;-71
2021/12/18 05:28:19;;;;;;;15.60;8.37;;;;;;;;;;5032508;28;20128;-72
2021/12/18 05:30:45;;;;;;;12.40;7.63;;;;;;;;;;5036684;28;20091;-71
2021/12/18 05:33:11;;;;;;;14.30;8.23;;;;;;;;;;5034858;28;20045;-72
2021/12/18 05:35:38;;;;;;;14.40;8.65;;;;;;;;;;5035168;28;20192;-71
2021/12/18 05:38:07;;;;;;;12.13;6.18;;;;;;;;;;5034070;28;20511;-72
2021/12/18 05:40:34;;;;;;;16.48;9.55;;;;;;;;;;5034902;28;20442;-71
2021/12/18 05:42:59;;;;;;;13.88;7.28;;;;;;;;;;5034894;28;20033;-71
2021/12/18 05:45:24;;;;;;;14.20;7.10;;;;;;;;;;5034772;28;20055;-71
2021/12/18 05:47:50;;;;;;;14.43;8.47;;;;;;;;;;5034757;28;20535;-71
2021/12/18 05:50:18;;;;;;;13.93;7.50;;;;;;;;;;5034653;28;20143;-71
2021/12/18 05:52:45;;;;;;;14.82;8.02;;;;;;;;;;5033427;28;20033;-72
2021/12/18 05:55:10;;;;;;;14.10;7.60;;;;;;;;;;5033202;28;20513;-71
2021/12/18 05:57:36;;;;;;;13.07;7.97;;;;;;;;;;5033183;28;20108;-71
2021/12/18 06:00:04;;;;;;;15.27;8.03;;;;;;;;;;5034624;28;20378;-71
2021/12/18 06:02:30;;;;;;;14.38;8.25;;;;;;;;;;5029522;28;20459;-71
2021/12/18 06:04:55;;;;;;;12.97;7.53;;;;;;;;;;5034152;28;20061;-72
2021/12/18 06:07:30;;;;;;;14.10;7.50;;;;;;;;;;5049849;28;20034;-71
2021/12/18 06:09:56;;;;;;;13.13;8.13;;;;;;;;;;5033741;28;20448;-72
2021/12/18 06:12:22;;;;;;;;;;;;;;;;;;5032687;28;20476;-71
2021/12/18 06:14:47;;;;;;;15.95;8.15;;;;;;;;;;5049340;28;20007;-71
2021/12/18 06:17:13;;;;;;;13.53;7.67;;;;;;;;;;5033526;28;20100;-71
2021/12/18 06:19:38;;;;;;;18.00;7.67;;;;;;;;;;5034129;28;20116;-72
2021/12/18 06:22:04;;;;;;;15.87;8.07;;;;;;;;;;5048895;28;20049;-73
2021/12/18 06:24:29;;;;;;;14.47;7.93;;;;;;;;;;5023572;28;20030;-74
2021/12/18 06:26:56;;;;;;;15.67;7.80;;;;;;;;;;5032511;28;20040;-75
2021/12/18 06:29:21;;;;;;;;;;;;;;;;;;5032235;28;20091;-74
2021/12/18 06:31:47;;;;;;;13.32;6.50;;;;;;;;;;5041261;28;19913;-74
2021/12/18 06:34:12;;;;;;;15.37;8.07;;;;;;;;;;5033681;28;20107;-75
2021/12/18 06:36:38;;;;;;;14.97;8.10;;;;;;;;;;5030826;28;20117;-74
2021/12/18 06:39:04;;;;;;;14.27;7.20;;;;;;;;;;5031398;28;20029;-74
2021/12/18 06:41:29;;;;;;;14.10;7.83;;;;;;;;;;5033397;28;20041;-74
2021/12/18 06:43:55;;;;;;;12.83;7.00;;;;;;;;;;5033573;28;20359;-75
2021/12/18 06:46:20;;;;;;;13.33;7.03;;;;;;;;;;5032664;28;20044;-74
2021/12/18 06:48:46;;;;;;;11.37;5.70;;;;;;;;;;5033734;28;20424;-74
2021/12/18 06:51:11;;;;;;;11.23;6.33;;;;;;;;;;5033499;28;20044;-74
2021/12/18 06:53:36;;;;;;;12.73;7.07;;;;;;;;;;5033571;28;20030;-71
2021/12/18 06:56:03;;;;;;;15.57;7.90;;;;;;;;;;5033422;28;20440;-71
2021/12/18 06:58:29;;;;;;;;;;;;;;;;;;5033965;28;20136;-71
2021/12/18 07:00:54;;;;;;;15.10;7.55;;;;;;;;;;5048700;28;19971;-71
2021/12/18 07:03:20;;;;;;;13.60;7.27;;;;;;;;;;5033558;28;20034;-71
2021/12/18 07:05:46;;;;;;;15.30;7.77;;;;;;;;;;5031942;28;20091;-71
2021/12/18 07:08:12;;;;;;;16.88;7.97;;;;;;;;;;5032097;28;20025;-71
2021/12/18 07:10:37;;;;;;;15.13;7.43;;;;;;;;;;5032884;28;20489;-71
2021/12/18 07:13:03;;;;;;;12.80;6.70;;;;;;;;;;5032277;28;20083;-71
2021/12/18 07:15:28;;;;;;;16.20;7.97;;;;;;;;;;5033291;28;20381;-71
2021/12/18 07:17:54;;;;;;;13.83;6.87;;;;;;;;;;5048397;28;20119;-71
2021/12/18 07:20:19;;;;;;;15.87;7.90;;;;;;;;;;5033169;28;20440;-71
2021/12/18 07:22:45;;;;;;;14.37;6.73;;;;;;;;;;5032562;28;20053;-71
2021/12/18 07:25:10;;;;;;;17.27;7.87;;;;;;;;;;5033216;28;20038;-72
2021/12/18 07:27:36;;;;;;;15.57;7.73;;;;;;;;;;5033261;28;20037;-71
2021/12/18 07:30:02;;;;;;;15.40;7.10;;;;;;;;;;5036319;28;20135;-71
2021/12/18 07:32:28;;;;;;;13.18;6.38;;;;;;;;;;5033019;28;20093;-73
2021/12/18 07:34:54;;;;;;;15.77;8.13;;;;;;;;;;5033066;28;20077;-74
2021/12/18 07:37:20;;;;;;;14.50;6.77;;;;;;;;;;5032505;28;20278;-73
2021/12/18 07:39:45;;;;;;;12.75;6.53;;;;;;;;;;5033171;28;20091;-74
2021/12/18 07:42:11;;;;;;;17.07;7.40;;;;;;;;;;5033049;28;20033;-74
2021/12/18 07:44:36;;;;;;;11.27;5.33;;;;;;;;;;5032912;28;20495;-74
2021/12/18 07:47:02;;;;;;;13.77;6.07;;;;;;;;;;5032993;28;20034;-74
2021/12/18 07:49:27;;;;;;;12.53;6.57;;;;;;;;;;5031780;28;20044;-74
2021/12/18 07:51:54;;;;;;;11.60;5.93;;;;;;;;;;5032893;28;20049;-71
2021/12/18 07:54:20;;;;;;;13.57;6.32;;;;;;;;;;5030933;28;20040;-72
2021/12/18 07:56:45;;;;;;;10.47;6.03;;;;;;;;;;5032443;28;20034;-73
2021/12/18 07:59:11;;;;;;;10.20;5.47;;;;;;;;;;5032736;28;20077;-73
2021/12/18 08:01:36;;;;;;;10.83;5.97;;;;;;;;;;5032787;28;20033;-73
2021/12/18 08:04:01;;;;;;;6.90;4.37;;;;;;;;;;5032636;28;20069;-72
2021/12/18 08:06:27;;;;;;;10.80;4.23;;;;;;;;;;5032810;28;20147;-72
2021/12/18 08:08:52;;;;;;;8.33;4.70;;;;;;;;;;5031441;28;20048;-72
2021/12/18 08:11:18;;;;;;;10.77;4.70;;;;;;;;;;5032290;28;20045;-72
2021/12/18 08:13:43;;;;;;;10.23;4.87;;;;;;;;;;5029824;28;20040;-72
2021/12/18 08:16:08;;;;;;;8.83;4.10;;;;;;;;;;5037665;28;20402;-72
2021/12/18 08:18:34;;;;;;;8.53;4.47;;;;;;;;;;5031429;28;20038;-72
2021/12/18 08:20:59;;;;;;;9.87;3.03;;;;;;;;;;5032335;28;20057;-73
2021/12/18 08:23:25;;;;;;;6.37;3.20;;;;;;;;;;5046657;28;20029;-73
2021/12/18 08:25:50;;;;;;;6.43;3.47;;;;;;;;;;5037885;28;20057;-72
2021/12/18 08:28:16;;;;;;;5.93;3.37;;;;;;;;;;5041211;28;20083;-72
2021/12/18 08:30:41;;;;;;;7.03;3.30;;;;;;;;;;5040651;28;20029;-75
2021/12/18 08:33:07;;;;;;;4.37;2.70;;;;;;;;;;5041596;28;20095;-75
2021/12/18 08:35:34;;;;;;;4.27;2.00;;;;;;;;;;5042078;28;20056;-74
2021/12/18 08:38:00;;;;;;;;;;;;;;;;;;5046976;28;20036;-75
2021/12/18 08:40:26;;;;;;;4.07;2.42;;;;;;;;;;5045164;28;19920;-74
2021/12/18 08:42:52;;;;;;;3.88;2.22;;;;;;;;;;5043865;28;20056;-72
2021/12/18 08:45:18;;;;;;;4.72;2.22;;;;;;;;;;5039634;28;20041;-71
2021/12/18 08:47:43;;;;;;;3.57;2.10;;;;;;;;;;5036252;28;20021;-72
2021/12/18 08:50:13;;;;;;;3.73;1.83;;;;;;;;;;5034772;28;20033;-72
2021/12/18 08:52:38;;;;;;;3.92;1.70;;;;;;;;;;5034544;28;20112;-72
2021/12/18 08:55:04;;;;;;;5.03;2.00;;;;;;;;;;5035770;28;20592;-72
2021/12/18 08:57:30;;;;;;;2.40;1.20;;;;;;;;;;5034413;28;20036;-71
2021/12/18 08:59:55;;;;;;;5.13;1.80;;;;;;;;;;5035575;28;20041;-72
2021/12/18 09:02:21;;;;;;;2.97;1.50;;;;;;;;;;5034529;28;20065;-72
2021/12/18 09:04:47;;;;;;;3.20;1.73;;;;;;;;;;5033996;28;20029;-72
2021/12/18 09:07:13;;;;;;;3.47;1.50;;;;;;;;;;5034215;28;20033;-71
2021/12/18 09:09:39;;;;;;;2.30;1.47;;;;;;;;;;5035275;28;20043;-72
2021/12/18 09:12:05;;;;;;;2.42;1.33;;;;;;;;;;5033768;28;20519;-72
2021/12/18 09:14:31;;;;;;;2.65;1.30;;;;;;;;;;5033052;28;20037;-71
2021/12/18 09:16:56;;;;;;;3.08;1.30;;;;;;;;;;5034757;28;20494;-71
2021/12/18 09:19:22;;;;;;;3.67;1.70;;;;;;;;;;5035954;28;20068;-71
2021/12/18 09:21:47;;;;;;;3.63;1.57;;;;;;;;;;5034889;28;20460;-71
2021/12/18 09:24:12;;;;;;;2.80;1.60;;;;;;;;;;5035102;28;20037;-72
2021/12/18 09:26:38;;;;;;;3.73;1.83;;;;;;;;;;5035313;28;20021;-71
2021/12/18 09:29:04;;;;;;;2.30;1.10;;;;;;;;;;5035147;28;20030;-72
2021/12/18 09:31:29;;;;;;;3.63;1.47;;;;;;;;;;5039468;28;20099;-72
2021/12/18 09:33:55;;;;;;;4.53;1.50;;;;;;;;;;5035362;28;20033;-72
2021/12/18 09:36:20;;;;;;;1.67;0.97;;;;;;;;;;5034989;28;20045;-72
2021/12/18 09:38:46;;;;;;;2.77;1.40;;;;;;;;;;5033555;28;20033;-72
2021/12/18 09:41:11;;;;;;;2.33;1.40;;;;;;;;;;5033596;28;20057;-72
2021/12/18 09:43:37;;;;;;;2.67;1.23;;;;;;;;;;5050355;28;20466;-71
2021/12/18 09:46:05;;;;;;;1.40;0.83;;;;;;;;;;5033366;28;20049;-72
2021/12/18 09:48:31;;;;;;;2.70;1.33;;;;;;;;;;5033485;28;20281;-72
2021/12/18 09:50:58;;;;;;;2.37;1.47;;;;;;;;;;5034623;28;20034;-72
2021/12/18 09:53:24;;;;;;;2.25;1.05;;;;;;;;;;5017112;28;20371;-72
2021/12/18 09:55:49;;;;;;;2.43;1.17;;;;;;;;;;5049916;28;20040;-72
2021/12/18 09:58:15;;;;;;;2.00;1.20;;;;;;;;;;5034657;28;20466;-71
2021/12/18 10:00:40;;;;;;;3.23;1.37;;;;;;;;;;5034354;28;20426;-72
2021/12/18 10:03:07;;;;;;;2.57;1.47;;;;;;;;;;5033320;28;20037;-72
2021/12/18 10:05:33;;;;;;;;;;;;;;;;;;5034995;28;20040;-72
2021/12/18 10:08:16;;;;;;;2.25;1.15;;;;;;;;;;5034456;28;19924;-72
2021/12/18 10:10:57;;;;;;;3.10;1.80;;;;;;;;;;5029840;28;20112;-72
2021/12/18 10:13:23;;;;;;;2.38;1.48;;;;;;;;;;5032947;28;20055;-72
2021/12/18 10:16:12;;;;;;;3.57;1.50;;;;;;;;;;5034042;28;20037;-72
2021/12/18 10:18:37;;;;;;;3.28;1.77;;;;;;;;;;5023231;28;20029;-72
2021/12/18 10:21:11;;;;;;;2.83;1.50;;;;;;;;;;5035807;28;20045;-73
2021/12/18 10:23:37;;;;;;;2.30;1.50;;;;;;;;;;5032730;28;20037;-72
2021/12/18 10:26:02;;;;;;;2.17;1.73;;;;;;;;;;5033954;28;20029;-73
2021/12/18 10:28:42;;;;;;;2.87;1.40;;;;;;;;;;5034002;28;20033;-72
2021/12/18 10:31:08;;;;;;;3.38;1.67;;;;;;;;;;5040355;28;20041;-71
2021/12/18 10:33:35;;;;;;;5.13;2.30;;;;;;;;;;5049499;28;20462;-71
2021/12/18 10:36:02;;;;;;;5.18;2.08;;;;;;;;;;5031929;28;20094;-72
2021/12/18 10:38:49;;;;;;;2.30;1.17;;;;;;;;;;5032076;28;20124;-72
2021/12/18 10:41:28;;;;;;;2.55;1.52;;;;;;;;;;5033344;28;20567;-72
2021/12/18 10:44:07;;;;;;;2.78;1.77;;;;;;;;;;5047754;28;20083;-71
2021/12/18 10:46:34;;;;;;;2.50;1.60;;;;;;;;;;5049265;28;20046;-72
2021/12/18 10:49:02;;;;;;;2.75;1.83;;;;;;;;;;5033111;28;20034;-71
2021/12/18 10:51:30;;;;;;;3.78;1.50;;;;;;;;;;5032084;28;20033;-72
2021/12/18 10:54:21;;;;;;;3.05;1.25;;;;;;;;;;5032234;28;20099;-72
2021/12/18 10:56:51;;;;;;;2.67;1.45;;;;;;;;;;5019442;28;20103;-71
2021/12/18 10:59:22;;;;;;;4.47;1.70;;;;;;;;;;5031716;28;20030;-72
2021/12/18 11:01:55;;;;;;;3.15;1.75;;;;;;;;;;5033237;28;20037;-73
2021/12/18 11:04:39;;;;;;;6.40;1.80;;;;;;;;;;5031903;28;20401;-72
2021/12/18 11:07:28;;;;;;;2.95;1.73;;;;;;;;;;5040121;28;20049;-75
2021/12/18 11:10:13;;;;;;;3.53;1.65;;;;;;;;;;5030190;28;20076;-77
2021/12/18 11:15:22;;;;;;;3.38;1.98;;;;;;;;;;5036084;28;20094;-74
2021/12/18 11:17:48;;;;;;;4.37;2.47;;;;;;;;;;5043617;28;20037;-74
2021/12/18 11:20:13;;;;;;;3.13;1.87;;;;;;;;;;5040081;28;20478;-75
2021/12/18 11:22:39;;;;;;;3.17;1.63;;;;;;;;;;5033134;28;20087;-74
2021/12/18 11:25:07;;;;;;;3.13;2.00;;;;;;;;;;5032017;28;20092;-71
2021/12/18 11:27:34;;;;;;;3.42;1.85;;;;;;;;;;5047080;28;20033;-71
2021/12/18 11:30:13;;;;;;;3.55;2.30;;;;;;;;;;5035518;28;20037;-72
2021/12/18 11:32:41;;;;;;;3.60;2.45;;;;;;;;;;5025962;28;20091;-73
2021/12/18 11:35:13;;;;;;;3.90;2.47;;;;;;;;;;5032869;28;20037;-74
2021/12/18 11:37:45;;;;;;;4.40;2.40;;;;;;;;;;5041871;28;20497;-74
2021/12/18 11:40:15;;;;;;;6.10;3.08;;;;;;;;;;5036957;28;20525;-73
2021/12/18 11:42:42;;;;;;;5.78;2.97;;;;;;;;;;5026221;28;20033;-70
2021/12/18 11:45:08;;;;;;;7.57;3.75;;;;;;;;;;5043688;28;20069;-72
2021/12/18 11:47:39;;;;;;;5.83;3.60;;;;;;;;;;5035659;28;20493;-71
2021/12/18 11:50:19;;;;;;;7.40;3.03;;;;;;;;;;5047523;28;20394;-72
2021/12/18 11:53:08;;;;;;;5.68;3.13;;;;;;;;;;5030556;28;20359;-71
2021/12/18 11:55:50;;;;;;;5.18;2.95;;;;;;;;;;5045518;28;20037;-70
2021/12/18 11:58:20;;;;;;;5.38;3.10;;;;;;;;;;5039401;28;20116;-71
2021/12/18 12:00:55;;;;;;;4.72;3.17;;;;;;;;;;5036609;28;20044;-73
2021/12/18 12:03:38;;;;;;;4.05;2.38;;;;;;;;;;5047247;28;20371;-73
2021/12/18 12:06:44;;;;;;;3.88;2.35;;;;;;;;;;5030095;28;20490;-74
2021/12/18 12:12:00;;;;;;;4.22;2.30;;;;;;;;;;5048592;28;20440;-72
2021/12/18 12:14:28;;;;;;;4.68;2.60;;;;;;;;;;5036475;28;20033;-73
2021/12/18 12:17:02;;;;;;;4.20;2.47;;;;;;;;;;5035414;28;20048;-73
2021/12/18 12:19:34;;;;;;;3.33;2.10;;;;;;;;;;5027339;28;20413;-73
2021/12/18 12:22:01;;;;;;;3.00;2.03;;;;;;;;;;5036557;28;20055;-72
2021/12/18 12:24:29;;;;;;;5.10;2.38;;;;;;;;;;5035137;28;20120;-72
2021/12/18 12:27:29;;;;;;;2.80;2.00;;;;;;;;;;5021579;28;21481;-74
2021/12/18 12:29:56;;;;;;;2.47;1.70;;;;;;;;;;5041111;28;20041;-73
2021/12/18 12:32:21;;;;;;;3.38;2.15;;;;;;;;;;5040802;28;20393;-72
2021/12/18 12:35:07;;;;;;;2.93;1.83;;;;;;;;;;5038005;28;20037;-72
2021/12/18 12:37:37;;;;;;;4.60;2.20;;;;;;;;;;5047741;28;20044;-74
2021/12/18 12:40:09;;;;;;;2.85;1.88;;;;;;;;;;5038209;28;20029;-74
2021/12/18 12:42:36;;;;;;;2.83;1.80;;;;;;;;;;5035484;28;20060;-74
2021/12/18 12:45:08;;;;;;;3.92;2.47;;;;;;;;;;5057200;28;20036;-74
2021/12/18 12:47:34;;;;;;;3.97;2.40;;;;;;;;;;5038946;28;20041;-73
2021/12/18 12:50:29;;;;;;;4.03;2.30;;;;;;;;;;5053995;28;20049;-74
2021/12/18 12:53:04;;;;;;;2.28;1.88;;;;;;;;;;5033386;28;20436;-75
2021/12/18 12:55:36;;;;;;;3.80;2.80;;;;;;;;;;5037136;28;20057;-74
2021/12/18 12:58:02;;;;;;;3.80;2.53;;;;;;;;;;5034071;28;20041;-74
2021/12/18 13:00:27;;;;;;;3.65;2.83;;;;;;;;;;5050921;28;20040;-74
2021/12/18 13:03:11;;;;;;;3.60;2.50;;;;;;;;;;5035520;28;20389;-75
2021/12/18 13:06:00;;;;;;;4.70;2.67;;;;;;;;;;5046369;28;20040;-75
2021/12/18 13:08:27;;;;;;;4.90;2.95;;;;;;;;;;5038698;28;20041;-75
2021/12/18 13:10:54;;;;;;;3.58;2.42;;;;;;;;;;5036086;28;20091;-74
2021/12/18 13:13:23;;;;;;;4.32;2.58;;;;;;;;;;5034627;28;20044;-74
2021/12/18 13:16:10;;;;;;;5.40;3.25;;;;;;;;;;5035324;28;20045;-74
2021/12/18 13:18:41;;;;;;;5.65;3.33;;;;;;;;;;5016681;28;20457;-74
2021/12/18 13:21:09;;;;;;;3.53;2.70;;;;;;;;;;5034996;28;20061;-75
2021/12/18 13:23:38;;;;;;;4.90;2.97;;;;;;;;;;5049393;28;20124;-74
2021/12/18 13:26:08;;;;;;;3.75;2.45;;;;;;;;;;5042609;28;20041;-74
2021/12/18 13:28:33;;;;;;;3.83;2.85;;;;;;;;;;5038919;28;20435;-74
2021/12/18 13:30:59;;;;;;;4.10;2.57;;;;;;;;;;5026119;28;20075;-74
2021/12/18 13:33:29;;;;;;;4.17;2.73;;;;;;;;;;5039240;28;20458;-74
2021/12/18 13:36:01;;;;;;;3.17;2.38;;;;;;;;;;5032878;28;20061;-75
2021/12/18 13:38:35;;;;;;;3.58;2.45;;;;;;;;;;5033174;28;20041;-74
2021/12/18 13:41:00;;;;;;;3.67;2.40;;;;;;;;;;5033786;28;20490;-74
2021/12/18 13:43:26;;;;;;;3.83;2.60;;;;;;;;;;5034706;28;20073;-72
2021/12/18 13:45:56;;;;;;;4.80;2.83;;;;;;;;;;5034720;28;20389;-71
2021/12/18 13:48:24;;;;;;;3.80;2.60;;;;;;;;;;5034821;28;20056;-71
2021/12/18 13:50:58;;;;;;;4.32;2.92;;;;;;;;;;5005562;28;20041;-74
2021/12/18 13:53:23;;;;;;;5.50;3.13;;;;;;;;;;5034416;28;20048;-74
2021/12/18 13:55:57;;;;;;;4.43;3.30;;;;;;;;;;5033482;28;20112;-73
2021/12/18 13:58:39;;;;;;;4.70;2.88;;;;;;;;;;5029748;28;20092;-74
2021/12/18 14:01:06;;;;;;;4.28;3.08;;;;;;;;;;5033430;28;20073;-74
2021/12/18 14:03:37;;;;;;;;;;;;;;;;;;5034812;28;20385;-74
2021/12/18 14:06:05;;;;;;;3.17;2.30;;;;;;;;;;5034344;28;19921;-74
2021/12/18 14:08:34;;;;;;;3.40;2.63;;;;;;;;;;5033056;28;20037;-74
2021/12/18 14:11:02;;;;;;;4.75;2.97;;;;;;;;;;5049484;28;20045;-74
2021/12/18 14:13:27;;;;;;;4.35;2.90;;;;;;;;;;5031232;28;20113;-74
2021/12/18 14:16:07;;;;;;;4.17;2.73;;;;;;;;;;5037249;28;20104;-74
2021/12/18 14:18:37;;;;;;;4.07;2.63;;;;;;;;;;5042032;28;20037;-73
2021/12/18 14:21:03;;;;;;;4.85;2.55;;;;;;;;;;5041539;28;20049;-73
2021/12/18 14:23:38;;;;;;;4.25;2.70;;;;;;;;;;5031329;28;20060;-71
2021/12/18 14:26:14;;;;;;;4.40;3.20;;;;;;;;;;5024279;28;20068;-74
2021/12/18 14:28:39;;;;;;;3.63;2.83;;;;;;;;;;5033612;28;20037;-74
2021/12/18 14:31:25;;;;;;;5.60;3.97;;;;;;;;;;5034636;28;20075;-75
2021/12/18 14:34:03;;;;;;;7.78;3.60;;;;;;;;;;5031225;28;20116;-73
2021/12/18 14:36:39;;;;;;;6.47;3.17;;;;;;;;;;5039551;28;20083;-74
2021/12/18 14:39:04;;;;;;;3.80;3.08;;;;;;;;;;5033512;28;20052;-74
2021/12/18 14:41:32;;;;;;;3.93;2.60;;;;;;;;;;5033791;28;20041;-74
2021/12/18 14:44:05;;;;;;;5.05;3.42;;;;;;;;;;5034071;28;20041;-73
2021/12/18 14:46:32;;;;;;;4.18;2.55;;;;;;;;;;5033755;28;20486;-73
2021/12/18 14:49:08;;;;;;;4.65;2.88;;;;;;;;;;5032988;28;20033;-73
2021/12/18 14:51:34;;;;;;;4.35;3.00;;;;;;;;;;5033990;28;20037;-72
2021/12/18 14:53:59;;;;;;;4.73;2.40;;;;;;;;;;5042272;28;20112;-72
2021/12/18 14:56:25;;;;;;;4.97;3.40;;;;;;;;;;5043523;28;20036;-72
2021/12/18 14:58:50;;;;;;;4.73;3.33;;;;;;;;;;5042928;28;20055;-72
2021/12/18 15:01:18;;;;;;;4.27;2.73;;;;;;;;;;5042333;28;20037;-74
2021/12/18 15:03:51;;;;;;;3.45;2.17;;;;;;;;;;5042412;28;20025;-73
2021/12/18 15:06:24;;;;;;;5.53;2.45;;;;;;;;;;5034014;28;20037;-74
2021/12/18 15:08:57;;;;;;;4.50;3.17;;;;;;;;;;5031769;28;20049;-74
2021/12/18 15:11:34;;;;;;;5.93;3.20;;;;;;;;;;5030867;28;20040;-74
2021/12/18 15:14:04;;;;;;;4.43;3.20;;;;;;;;;;5031913;28;20045;-74
2021/12/18 15:16:32;;;;;;;4.13;2.97;;;;;;;;;;5029754;28;20073;-76
2021/12/18 15:19:01;;;;;;;5.13;3.35;;;;;;;;;;5033035;28;20045;-72
2021/12/18 15:21:28;;;;;;;6.70;4.18;;;;;;;;;;5031181;28;20473;-73
2021/12/18 15:23:54;;;;;;;4.90;3.40;;;;;;;;;;5031982;28;20037;-72
2021/12/18 15:26:20;;;;;;;5.77;3.73;;;;;;;;;;5031884;28;20037;-72
2021/12/18 15:28:46;;;;;;;4.07;3.00;;;;;;;;;;5031606;28;20040;-72
2021/12/18 15:31:12;;;;;;;6.03;3.70;;;;;;;;;;5050085;28;20128;-72
2021/12/18 15:33:37;;;;;;;5.88;3.70;;;;;;;;;;5031067;28;20041;-72